Craftsbury Common, VT (05827)

6:17 PM EST on February 09, 2016 (GMT -0500)
Craftsbury Outdoor Center | | Change Station
CLOSE
Current Station
Personal Weather Station
Location: Craftsbury Common, VT
Elevation: 1100 ft
Nearby Weather Stations

Elev 1100 ft 44.68 °N, 72.36 °W | Updated 14 minutes ago

Overcast
Overcast
22.4 °F
Feels Like 17 °F
N
4.0
Wind Variable Wind from SE
Gusts 5.0 mph

Today
High -- | Low -- °F
--% Chance of Precip.
Yesterday
High -- | Low -- °F
Precip. -- in
Pressure 29.60 in
Visibility 10.0 miles
Clouds Mostly Cloudy 3100 ft
Overcast 4500 ft
Windchill 17 °F
Dew Point 18 °F
Humidity 83%
Rainfall 0.00 in
Snow Depth Not available.
6:59 AM 5:09 PM
New Moon, 2% visible
METAR KMVL 092254Z AUTO 00000KT 10SM BKN031 OVC045 M04/M09 A2956 RMK AO2 SLP024 T10441089 $
Pressure 29.60 in
Visibility 10.0 miles
Clouds Mostly Cloudy 3100 ft
Overcast 4500 ft
Windchill 17 °F
Dew Point 18 °F
Humidity 83%
Rainfall 0.00 in
Snow Depth Not available.
6:59 AM 5:09 PM
New Moon, 2% visible
METAR KMVL 092254Z AUTO 00000KT 10SM BKN031 OVC045 M04/M09 A2956 RMK AO2 SLP024 T10441089 $

10-Day Weather Forecast

Almanac

Astronomy

Feb. 09, 2016 Rise Set
Actual Time
Civil Twilight
Nautical Twilight
Astronomical Twilight
Moon
Length of Visible Light
Length of Day
Tomorrow will be .
, % of the Moon is Illuminated

Today's Extremes

State Highs State Lows

Community

WunderPhotos

Upload Photos

1,891,728 photos uploaded!

WunderBlog® & News

Nearby

Air Quality

  Air Quality AQ Index Pollutant
Not available.

Snow Depth

Station Depth Elevation

Earthquake Activity

City Distance Mag. Time & Date
Minimum magnitude displayed is 2.5.

Coastal Water Temperatures

Place Temperature

Stations

Nearby Weather Stations

Station Location Temp. Windchill Dew Point Humidity Wind Precip. Elev Updated Type
                   

Watches & Warnings

There are currently no watches in effect.